Time;durP1;ratioP1;P1;durP2;ratioP2;P2;SDS_P1;SDS_P2;PMS_P1;PMS_P2;Temp;Humidity;BMP_temperature;BMP_pressure;BME280_temperature;BME280_humidity;BME280_pressure;Samples;Min_cycle;Max_cycle;Signal;HPM_P1;HPM_P2
2023/09/02 00:01:49;;;;;;;11.02;9.75;;;15.50;99.90;;;;;;5073327;28;20037;-72
2023/09/02 00:04:15;;;;;;;11.43;9.50;;;15.50;99.90;;;;;;5073184;28;20123;-71
2023/09/02 00:06:41;;;;;;;17.60;12.05;;;15.50;99.90;;;;;;5073498;28;20050;-71
2023/09/02 00:09:07;;;;;;;18.77;14.80;;;15.50;99.90;;;;;;5073201;28;20493;-71
2023/09/02 00:11:32;;;;;;;23.63;17.58;;;15.50;99.90;;;;;;5073130;28;20135;-71
2023/09/02 00:13:58;;;;;;;19.67;15.32;;;15.40;99.90;;;;;;5072858;28;20044;-71
2023/09/02 00:16:23;;;;;;;23.38;15.93;;;15.40;99.90;;;;;;5056397;28;20076;-71
2023/09/02 00:18:49;;;;;;;17.70;14.25;;;15.40;99.90;;;;;;5073175;28;20489;-71
2023/09/02 00:21:14;;;;;;;17.27;14.13;;;15.40;99.90;;;;;;5072912;28;20374;-71
2023/09/02 00:23:45;;;;;;;15.73;11.77;;;15.30;99.90;;;;;;5073072;28;20041;-71
2023/09/02 00:26:11;;;;;;;13.27;11.27;;;15.30;99.90;;;;;;5072769;28;20040;-71
2023/09/02 00:28:36;;;;;;;12.02;10.32;;;15.30;99.90;;;;;;5072778;28;20040;-71
2023/09/02 00:31:02;;;;;;;11.07;9.80;;;15.30;99.90;;;;;;5072729;28;20058;-71
2023/09/02 00:33:27;;;;;;;10.98;9.80;;;15.20;99.90;;;;;;5072617;28;20076;-71
2023/09/02 00:35:53;;;;;;;12.00;10.13;;;15.20;99.90;;;;;;5072540;28;20047;-71
2023/09/02 00:38:19;;;;;;;12.75;9.77;;;15.20;99.90;;;;;;5072576;28;20051;-71
2023/09/02 00:41:02;;;;;;;13.40;9.75;;;15.20;99.90;;;;;;5072574;28;20064;-71
2023/09/02 00:43:29;;;;;;;12.13;10.50;;;15.30;99.90;;;;;;5072469;28;20048;-71
2023/09/02 00:45:55;;;;;;;14.20;10.23;;;15.20;99.90;;;;;;5072689;28;20501;-71
2023/09/02 00:48:21;;;;;;;13.45;9.80;;;15.20;99.90;;;;;;5072375;28;20447;-71
2023/09/02 00:50:46;;;;;;;12.18;9.70;;;15.20;99.90;;;;;;5072373;28;20040;-71
2023/09/02 00:53:12;;;;;;;12.43;9.52;;;15.20;99.90;;;;;;5072587;28;20047;-71
2023/09/02 00:55:39;;;;;;;12.75;9.20;;;15.20;99.90;;;;;;5072130;28;20040;-71
2023/09/02 00:58:06;;;;;;;10.55;9.30;;;15.20;99.90;;;;;;5072250;28;20413;-71
2023/09/02 01:00:31;;;;;;;11.13;8.77;;;15.20;99.90;;;;;;5072508;28;20083;-71
2023/09/02 01:02:58;;;;;;;12.85;9.48;;;15.20;99.90;;;;;;5072521;28;20462;-71
2023/09/02 01:05:24;;;;;;;12.57;9.20;;;15.20;99.90;;;;;;5072105;28;20046;-71
2023/09/02 01:07:51;;;;;;;10.27;9.20;;;15.20;99.90;;;;;;5072151;28;20127;-71
2023/09/02 01:10:18;;;;;;;11.13;8.85;;;15.20;99.90;;;;;;5072087;28;20052;-71
2023/09/02 01:12:44;;;;;;;14.85;8.98;;;15.20;99.90;;;;;;5072281;28;20052;-71
2023/09/02 01:15:10;;;;;;;10.75;8.98;;;15.20;99.90;;;;;;5072091;28;20104;-71
2023/09/02 01:17:35;;;;;;;9.90;8.63;;;15.20;99.90;;;;;;5071962;28;20504;-71
2023/09/02 01:20:05;;;;;;;11.50;8.68;;;15.20;99.90;;;;;;5072236;28;20055;-71
2023/09/02 01:23:04;;;;;;;11.02;8.55;;;15.20;99.90;;;;;;5055276;28;20040;-71
2023/09/02 01:25:55;;;;;;;14.30;9.05;;;15.20;99.90;;;;;;5071922;28;20043;-71
2023/09/02 01:28:30;;;;;;;11.73;9.07;;;15.10;99.90;;;;;;5071896;28;20047;-71
2023/09/02 01:30:56;;;;;;;12.45;9.23;;;15.10;99.90;;;;;;5071892;28;20470;-71
2023/09/02 01:33:26;;;;;;;10.35;9.23;;;15.10;99.90;;;;;;5071751;28;20119;-71
2023/09/02 01:35:52;;;;;;;9.77;8.85;;;15.10;99.90;;;;;;5071797;28;20045;-71
2023/09/02 01:38:21;;;;;;;12.30;9.43;;;15.00;99.90;;;;;;5071268;28;20492;-71
2023/09/02 01:40:50;;;;;;;9.30;8.38;;;15.00;99.90;;;;;;5072014;28;20520;-71
2023/09/02 01:43:20;;;;;;;9.68;8.68;;;15.00;99.90;;;;;;5071727;28;20037;-71
2023/09/02 01:45:46;;;;;;;12.15;8.35;;;14.90;99.90;;;;;;5072328;28;20115;-71
2023/09/02 01:48:13;;;;;;;9.30;8.27;;;14.90;99.90;;;;;;5071950;28;20116;-71
2023/09/02 01:50:40;;;;;;;10.27;8.93;;;14.90;99.90;;;;;;5071970;28;20041;-71
2023/09/02 01:53:08;;;;;;;9.93;8.65;;;14.90;99.90;;;;;;5071665;28;20048;-71
2023/09/02 01:55:35;;;;;;;11.25;8.75;;;14.90;99.90;;;;;;5071711;28;20041;-71
2023/09/02 01:58:01;;;;;;;10.18;8.77;;;14.90;99.90;;;;;;5071642;28;20115;-71
2023/09/02 02:00:27;;;;;;;10.65;8.27;;;14.90;99.90;;;;;;5071540;28;20459;-72
2023/09/02 02:02:55;;;;;;;9.85;8.35;;;14.80;99.90;;;;;;5071578;28;20116;-72
2023/09/02 02:05:31;;;;;;;12.70;8.45;;;14.80;99.90;;;;;;5071731;28;20128;-72
2023/09/02 02:08:02;;;;;;;13.27;9.30;;;14.80;99.90;;;;;;5071640;28;20049;-72
2023/09/02 02:10:31;;;;;;;10.30;8.18;;;14.80;99.90;;;;;;5071761;28;20040;-71
2023/09/02 02:13:01;;;;;;;10.70;8.30;;;14.80;99.90;;;;;;5071462;28;20072;-71
2023/09/02 02:15:27;;;;;;;10.23;7.93;;;14.70;99.90;;;;;;5071572;28;20087;-71
2023/09/02 02:17:52;;;;;;;9.30;7.70;;;14.70;99.90;;;;;;5071438;28;20401;-71
2023/09/02 02:20:19;;;;;;;11.13;7.57;;;14.60;99.90;;;;;;5071642;28;20097;-71
2023/09/02 02:22:44;;;;;;;11.75;8.77;;;14.60;99.90;;;;;;5071394;28;20072;-71
2023/09/02 02:25:10;;;;;;;10.55;8.60;;;14.50;99.90;;;;;;5071305;28;20072;-71
2023/09/02 02:27:35;;;;;;;8.18;7.38;;;14.50;99.90;;;;;;5071368;28;20143;-71
2023/09/02 02:30:03;;;;;;;9.40;8.43;;;14.50;99.90;;;;;;5071319;28;20068;-71
2023/09/02 02:32:29;;;;;;;10.02;7.75;;;14.50;99.90;;;;;;5071284;28;20044;-71
2023/09/02 02:34:54;;;;;;;8.77;7.85;;;14.40;99.90;;;;;;5071091;28;20043;-71
2023/09/02 02:37:20;;;;;;;9.73;8.45;;;14.50;99.90;;;;;;5071196;28;20033;-71
2023/09/02 02:39:46;;;;;;;10.68;9.00;;;14.40;99.90;;;;;;5071451;28;20044;-71
2023/09/02 02:42:14;;;;;;;7.72;6.93;;;14.50;99.90;;;;;;5071796;28;20453;-72
2023/09/02 02:44:40;;;;;;;12.27;8.20;;;14.50;99.90;;;;;;5054644;28;20441;-72
2023/09/02 02:47:06;;;;;;;9.82;8.65;;;14.50;99.90;;;;;;5071131;28;20562;-72
2023/09/02 02:49:31;;;;;;;9.40;8.40;;;14.40;99.90;;;;;;5071134;28;20075;-72
2023/09/02 02:51:57;;;;;;;9.75;8.75;;;14.40;99.90;;;;;;5074572;28;20044;-71
2023/09/02 02:54:22;;;;;;;10.57;9.43;;;14.40;99.90;;;;;;5074533;28;20382;-71
2023/09/02 02:56:48;;;;;;;10.55;9.35;;;14.50;99.90;;;;;;5074551;28;20044;-71
2023/09/02 02:59:13;;;;;;;14.30;9.88;;;14.40;99.90;;;;;;5074549;28;20405;-71
2023/09/02 03:01:39;;;;;;;10.80;8.90;;;14.40;99.90;;;;;;5074801;28;20126;-71
2023/09/02 03:04:05;;;;;;;10.05;9.00;;;14.40;99.90;;;;;;5074646;28;20036;-71
2023/09/02 03:06:31;;;;;;;10.73;9.20;;;14.40;99.90;;;;;;5074674;28;20458;-71
2023/09/02 03:08:56;;;;;;;13.73;9.32;;;14.40;99.90;;;;;;5074627;28;20509;-71
2023/09/02 03:11:22;;;;;;;10.63;9.55;;;14.40;99.90;;;;;;5074359;28;20123;-71
2023/09/02 03:13:47;;;;;;;11.20;9.73;;;14.40;99.90;;;;;;5074083;28;20044;-71
2023/09/02 03:16:13;;;;;;;11.00;9.70;;;14.40;99.90;;;;;;5074305;28;20119;-71
2023/09/02 03:18:40;;;;;;;10.50;9.43;;;14.30;99.90;;;;;;5074199;28;20040;-71
2023/09/02 03:21:07;;;;;;;15.60;10.23;;;14.40;99.90;;;;;;5074154;28;20040;-71
2023/09/02 03:23:34;;;;;;;11.68;10.25;;;14.30;99.90;;;;;;5074022;28;20058;-71
2023/09/02 03:26:17;;;;;;;10.82;9.68;;;14.40;99.90;;;;;;5074328;28;20048;-71
2023/09/02 03:28:43;;;;;;;11.40;10.13;;;14.40;99.90;;;;;;5074074;28;20516;-71
2023/09/02 03:31:10;;;;;;;12.63;9.57;;;14.40;99.90;;;;;;5073964;28;20083;-71
2023/09/02 03:33:36;;;;;;;11.80;9.73;;;14.40;99.90;;;;;;5074149;28;20042;-71
2023/09/02 03:36:02;;;;;;;11.65;9.48;;;14.40;99.90;;;;;;5073946;28;20115;-71
2023/09/02 03:38:28;;;;;;;10.48;9.35;;;14.40;99.90;;;;;;5074101;28;20405;-71
2023/09/02 03:40:54;;;;;;;13.00;9.48;;;14.40;99.90;;;;;;5073758;28;20033;-71
2023/09/02 03:43:19;;;;;;;10.23;8.80;;;14.30;99.90;;;;;;5073661;28;20041;-71
2023/09/02 03:45:48;;;;;;;11.23;10.00;;;14.30;99.90;;;;;;5073697;28;20055;-71
2023/09/02 03:48:18;;;;;;;11.82;9.32;;;14.30;99.90;;;;;;5073930;28;20048;-71
2023/09/02 03:51:00;;;;;;;12.23;9.13;;;14.30;99.90;;;;;;5073589;28;20059;-71
2023/09/02 03:53:26;;;;;;;10.73;8.98;;;14.30;99.90;;;;;;5073755;28;20401;-72
2023/09/02 03:55:51;;;;;;;11.98;9.75;;;14.30;99.90;;;;;;5073595;28;20497;-72
2023/09/02 03:58:17;;;;;;;10.63;9.52;;;14.30;99.90;;;;;;5073706;28;20033;-72
2023/09/02 04:00:42;;;;;;;10.75;9.20;;;14.30;99.90;;;;;;5073358;28;20562;-72
2023/09/02 04:03:08;;;;;;;12.23;8.95;;;14.20;99.90;;;;;;5073190;28;20036;-72
2023/09/02 04:05:33;;;;;;;11.73;9.52;;;14.30;99.90;;;;;;5073221;28;20493;-72
2023/09/02 04:07:59;;;;;;;11.38;10.18;;;14.20;99.90;;;;;;5073281;28;20048;-72
2023/09/02 04:10:25;;;;;;;12.27;10.15;;;14.30;99.90;;;;;;5073141;28;20036;-72
2023/09/02 04:12:50;;;;;;;11.70;9.48;;;14.30;99.90;;;;;;5073039;28;20079;-72
2023/09/02 04:15:17;;;;;;;11.63;9.75;;;14.30;99.90;;;;;;5073225;28;20036;-72
2023/09/02 04:17:43;;;;;;;14.45;10.48;;;14.30;99.90;;;;;;5073007;28;20048;-71
2023/09/02 04:20:10;;;;;;;14.18;9.90;;;14.30;99.90;;;;;;5073209;28;20025;-71
2023/09/02 04:22:35;;;;;;;10.15;9.10;;;14.30;99.90;;;;;;5074419;28;20111;-71
2023/09/02 04:25:01;;;;;;;14.55;10.65;;;14.30;99.90;;;;;;5072806;28;20112;-71
2023/09/02 04:27:27;;;;;;;13.68;10.65;;;14.30;99.90;;;;;;5072798;28;20033;-71
2023/09/02 04:29:52;;;;;;;12.27;10.60;;;14.30;99.90;;;;;;5073031;28;20033;-71
2023/09/02 04:32:18;;;;;;;13.70;9.80;;;14.30;99.90;;;;;;5072775;28;20501;-71
2023/09/02 04:34:46;;;;;;;13.25;10.25;;;14.30;99.90;;;;;;5072551;28;20040;-71
2023/09/02 04:37:11;;;;;;;11.43;10.30;;;14.40;99.90;;;;;;5055992;28;20045;-71
2023/09/02 04:39:40;;;;;;;12.45;10.07;;;14.30;99.90;;;;;;5072562;28;20044;-71
2023/09/02 04:42:06;;;;;;;12.32;10.18;;;14.30;99.90;;;;;;5072561;28;20041;-71
2023/09/02 04:44:31;;;;;;;12.43;11.07;;;14.40;99.90;;;;;;5072708;28;20059;-71
2023/09/02 04:46:57;;;;;;;11.90;10.40;;;14.30;99.90;;;;;;5072752;28;20397;-71
2023/09/02 04:49:22;;;;;;;11.88;10.57;;;14.30;99.90;;;;;;5072742;28;20084;-71
2023/09/02 04:51:49;;;;;;;12.90;10.40;;;14.30;99.90;;;;;;5072430;28;20513;-71
2023/09/02 04:54:14;;;;;;;11.77;10.15;;;14.30;99.90;;;;;;5072264;28;20040;-71
2023/09/02 04:56:40;;;;;;;12.52;11.05;;;14.30;99.90;;;;;;5072260;28;20040;-71
2023/09/02 04:59:06;;;;;;;12.88;10.65;;;14.40;99.90;;;;;;5072237;28;20040;-71
2023/09/02 05:01:31;;;;;;;14.43;10.65;;;14.30;99.90;;;;;;5072268;28;20045;-71
2023/09/02 05:03:57;;;;;;;16.60;11.55;;;14.40;99.90;;;;;;5072122;28;20036;-71
2023/09/02 05:06:23;;;;;;;15.13;10.70;;;14.40;99.90;;;;;;5072151;28;20040;-71
2023/09/02 05:08:53;;;;;;;10.38;8.50;;;14.40;99.90;;;;;;5072167;28;20522;-71
2023/09/02 05:11:20;;;;;;;9.60;8.40;;;14.40;99.90;;;;;;5072204;28;20086;-71
2023/09/02 05:13:47;;;;;;;12.50;9.18;;;14.40;99.90;;;;;;5071184;28;20056;-71
2023/09/02 05:16:13;;;;;;;11.20;9.93;;;14.40;99.90;;;;;;5071965;28;20051;-71
2023/09/02 05:18:39;;;;;;;10.70;9.68;;;14.50;99.90;;;;;;5072297;28;20033;-71
2023/09/02 05:21:04;;;;;;;13.43;10.43;;;14.50;99.90;;;;;;5072022;28;20443;-71
2023/09/02 05:23:30;;;;;;;14.93;10.02;;;14.50;99.90;;;;;;5072190;28;20114;-71
2023/09/02 05:25:57;;;;;;;14.13;10.82;;;14.50;99.90;;;;;;5071980;28;20567;-71
2023/09/02 05:28:23;;;;;;;13.20;11.07;;;14.60;99.90;;;;;;5071891;28;20034;-71
2023/09/02 05:30:49;;;;;;;16.08;12.13;;;14.50;99.90;;;;;;5071863;28;20044;-71
2023/09/02 05:33:16;;;;;;;13.85;12.07;;;14.60;99.90;;;;;;5072149;28;20041;-71
2023/09/02 05:35:42;;;;;;;14.55;11.50;;;14.60;99.90;;;;;;5071685;28;20044;-71
2023/09/02 05:38:09;;;;;;;14.13;11.93;;;14.60;99.90;;;;;;5071794;28;20405;-71
2023/09/02 05:40:35;;;;;;;14.27;12.77;;;14.70;99.90;;;;;;5071807;28;20044;-71
2023/09/02 05:43:01;;;;;;;14.07;12.55;;;14.70;99.90;;;;;;5071761;28;20552;-71
2023/09/02 05:45:26;;;;;;;15.02;13.52;;;14.70;99.90;;;;;;5071673;28;20119;-71
2023/09/02 05:47:52;;;;;;;16.52;12.75;;;14.80;99.90;;;;;;5071733;28;20063;-71
2023/09/02 05:50:18;;;;;;;14.45;12.95;;;14.80;99.90;;;;;;5071697;28;20127;-71
2023/09/02 05:52:43;;;;;;;16.02;14.18;;;14.90;99.90;;;;;;5071647;28;20044;-71
2023/09/02 05:55:09;;;;;;;14.77;12.85;;;14.90;99.90;;;;;;5071522;28;20049;-71
2023/09/02 05:57:34;;;;;;;17.73;14.88;;;14.80;99.90;;;;;;5071940;28;20083;-71
2023/09/02 06:00:03;;;;;;;17.70;14.15;;;14.90;99.90;;;;;;5071854;28;20486;-71
2023/09/02 06:02:34;;;;;;;15.73;13.90;;;14.90;99.90;;;;;;5071839;28;20063;-71
2023/09/02 06:05:00;;;;;;;17.50;15.55;;;14.90;99.90;;;;;;5071576;28;20044;-71
2023/09/02 06:07:25;;;;;;;15.60;14.00;;;14.90;99.90;;;;;;5071537;28;20080;-71
2023/09/02 06:09:51;;;;;;;22.27;15.60;;;14.90;99.90;;;;;;5071507;28;20079;-71
2023/09/02 06:12:16;;;;;;;16.63;14.85;;;14.90;99.90;;;;;;5071248;28;20036;-71
2023/09/02 06:14:42;;;;;;;15.95;14.35;;;15.00;99.90;;;;;;5071437;28;20032;-71
2023/09/02 06:17:08;;;;;;;16.80;14.93;;;15.00;99.90;;;;;;5071342;28;20086;-71
2023/09/02 06:19:34;;;;;;;21.67;14.40;;;15.00;99.90;;;;;;5071426;28;20053;-71
2023/09/02 06:22:00;;;;;;;18.13;14.13;;;15.00;99.90;;;;;;5071663;28;20072;-71
2023/09/02 06:24:27;;;;;;;15.25;12.93;;;15.00;99.90;;;;;;5071842;28;20479;-71
2023/09/02 06:26:53;;;;;;;16.33;13.35;;;15.00;99.90;;;;;;5075161;28;20071;-71
2023/09/02 06:29:18;;;;;;;15.13;13.52;;;15.00;99.90;;;;;;5075126;28;20040;-71
2023/09/02 06:31:45;;;;;;;16.75;14.50;;;15.10;99.90;;;;;;5075017;28;20093;-71
2023/09/02 06:34:11;;;;;;;21.80;13.93;;;15.10;99.90;;;;;;5075008;28;20155;-71
2023/09/02 06:36:37;;;;;;;17.48;12.75;;;15.10;99.90;;;;;;5058290;28;20071;-71
2023/09/02 06:39:04;;;;;;;14.13;12.23;;;15.10;99.90;;;;;;5074966;28;20110;-71
2023/09/02 06:41:30;;;;;;;12.85;11.55;;;15.10;99.90;;;;;;5074900;28;20044;-72
2023/09/02 06:43:56;;;;;;;14.90;11.82;;;15.20;99.90;;;;;;5074806;28;20067;-72
2023/09/02 06:46:24;;;;;;;14.05;12.57;;;15.30;99.90;;;;;;5075044;28;20041;-72
2023/09/02 06:48:50;;;;;;;14.85;11.60;;;15.30;99.90;;;;;;5074755;28;20054;-72
2023/09/02 06:51:16;;;;;;;15.20;12.35;;;15.40;99.90;;;;;;5075015;28;20040;-72
2023/09/02 06:53:43;;;;;;;14.48;11.68;;;15.50;99.90;;;;;;5074649;28;20483;-72
2023/09/02 06:56:12;;;;;;;18.30;13.63;;;15.60;99.90;;;;;;5074583;28;20052;-72
2023/09/02 06:58:42;;;;;;;15.55;12.93;;;15.60;99.90;;;;;;5074747;28;20032;-72
2023/09/02 07:01:18;;;;;;;17.83;14.00;;;15.70;99.90;;;;;;5074601;28;20039;-71
2023/09/02 07:03:44;;;;;;;17.60;13.50;;;15.70;99.90;;;;;;5074463;28;20051;-74
2023/09/02 07:06:14;;;;;;;15.57;13.93;;;15.70;99.90;;;;;;5057798;28;20157;-73
2023/09/02 07:08:40;;;;;;;15.90;13.68;;;15.80;99.90;;;;;;5057693;28;20438;-73
2023/09/02 07:11:06;;;;;;;14.80;12.75;;;15.90;99.90;;;;;;5074656;28;20439;-73
2023/09/02 07:13:32;;;;;;;15.30;12.77;;;15.90;99.90;;;;;;5074417;28;20076;-74
2023/09/02 07:16:02;;;;;;;18.13;14.63;;;16.10;99.90;;;;;;5074391;28;20524;-74
2023/09/02 07:18:27;;;;;;;20.63;14.98;;;16.20;99.90;;;;;;5057864;28;20036;-73
2023/09/02 07:21:00;;;;;;;20.42;15.27;;;16.30;99.90;;;;;;5074266;28;20520;-73
2023/09/02 07:23:27;;;;;;;20.40;15.35;;;16.40;99.90;;;;;;5074942;28;20036;-72
2023/09/02 07:25:53;;;;;;;20.15;15.68;;;16.40;99.90;;;;;;5074078;28;20045;-72
2023/09/02 07:28:19;;;;;;;19.40;16.10;;;16.60;99.90;;;;;;5074123;28;20052;-72
2023/09/02 07:30:44;;;;;;;20.15;16.63;;;16.60;99.90;;;;;;5074306;28;20059;-74
2023/09/02 07:33:10;;;;;;;21.73;16.00;;;16.70;99.90;;;;;;5057261;28;20570;-75
2023/09/02 07:35:36;;;;;;;19.20;15.35;;;16.80;99.90;;;;;;5073593;28;20037;-75
2023/09/02 07:38:03;;;;;;;15.98;14.27;;;16.80;99.90;;;;;;5073297;28;20094;-75
2023/09/02 07:40:29;;;;;;;18.17;14.68;;;16.90;99.90;;;;;;5073840;28;20037;-75
2023/09/02 07:42:55;;;;;;;18.20;14.93;;;16.90;99.90;;;;;;5073836;28;20062;-75
2023/09/02 07:45:20;;;;;;;21.77;15.63;;;17.00;99.90;;;;;;5073669;28;20047;-72
2023/09/02 07:47:46;;;;;;;18.38;15.60;;;17.00;99.90;;;;;;5073667;28;20080;-72
2023/09/02 07:50:12;;;;;;;18.50;15.70;;;17.10;99.90;;;;;;5073864;28;20062;-72
2023/09/02 07:52:37;;;;;;;21.35;16.55;;;17.20;99.90;;;;;;5073692;28;20123;-72
2023/09/02 07:55:03;;;;;;;21.80;16.52;;;17.20;99.90;;;;;;5073784;28;20128;-72
2023/09/02 07:57:30;;;;;;;21.60;16.75;;;17.30;99.90;;;;;;5073730;28;20493;-72
2023/09/02 07:59:57;;;;;;;20.38;16.70;;;17.30;99.90;;;;;;5073756;28;20045;-72
2023/09/02 08:02:23;;;;;;;22.90;17.38;;;17.30;99.90;;;;;;5056982;28;20153;-72
2023/09/02 08:04:49;;;;;;;22.70;17.85;;;17.30;99.90;;;;;;5073289;28;20464;-72
2023/09/02 08:07:14;;;;;;;20.27;17.17;;;17.30;99.90;;;;;;5073273;28;20048;-71
2023/09/02 08:09:40;;;;;;;20.50;17.25;;;17.40;99.90;;;;;;5073226;28;20049;-71
2023/09/02 08:12:08;;;;;;;24.90;17.52;;;17.60;99.90;;;;;;5073145;28;20045;-72
2023/09/02 08:14:34;;;;;;;24.60;18.35;;;17.60;99.90;;;;;;5073056;28;20036;-72
2023/09/02 08:16:59;;;;;;;22.88;17.65;;;17.70;99.90;;;;;;5073045;28;20052;-72
2023/09/02 08:19:25;;;;;;;20.95;17.70;;;17.80;99.90;;;;;;5073345;28;20072;-72
2023/09/02 08:21:51;;;;;;;23.63;18.92;;;17.80;99.90;;;;;;5073368;28;20113;-72
2023/09/02 08:24:16;;;;;;;22.42;17.65;;;18.00;99.90;;;;;;5073095;28;20037;-72
2023/09/02 08:26:42;;;;;;;23.08;17.85;;;18.00;99.90;;;;;;5072943;28;20037;-72
2023/09/02 08:29:08;;;;;;;26.48;18.60;;;18.10;99.90;;;;;;5072978;28;20093;-72
2023/09/02 08:31:34;;;;;;;21.95;17.88;;;18.30;99.90;;;;;;5072845;28;20052;-73
2023/09/02 08:33:59;;;;;;;22.38;18.90;;;18.50;99.90;;;;;;5072662;28;20044;-75
2023/09/02 08:36:25;;;;;;;27.85;18.90;;;18.70;99.90;;;;;;5072692;28;20040;-73
2023/09/02 08:38:53;;;;;;;24.38;18.77;;;18.80;99.90;;;;;;5072903;28;20051;-73
2023/09/02 08:41:29;;;;;;;23.73;16.88;;;19.10;99.90;;;;;;5072601;28;20125;-72
2023/09/02 08:43:55;;;;;;;22.85;15.32;;;19.30;99.90;;;;;;5072465;28;20528;-72
2023/09/02 08:46:26;;;;;;;23.33;15.55;;;19.50;99.90;;;;;;5072477;28;20048;-72
2023/09/02 08:48:55;;;;;;;19.83;15.95;;;19.70;99.90;;;;;;5072763;28;20059;-72
2023/09/02 08:51:22;;;;;;;20.50;15.98;;;19.80;99.90;;;;;;5072708;28;20063;-72
2023/09/02 08:53:49;;;;;;;19.50;15.25;;;19.90;99.90;;;;;;5072330;28;20408;-72
2023/09/02 08:56:14;;;;;;;22.67;17.27;;;20.10;99.90;;;;;;5072324;28;20404;-72
2023/09/02 08:58:41;;;;;;;21.40;15.35;;;20.20;99.90;;;;;;5072624;28;20485;-72
2023/09/02 09:01:08;;;;;;;21.63;15.52;;;20.30;99.90;;;;;;5072274;28;20079;-72
2023/09/02 09:03:34;;;;;;;20.33;14.50;;;20.50;99.90;;;;;;5072183;28;20032;-72
2023/09/02 09:06:04;;;;;;;17.63;12.88;;;20.70;99.90;;;;;;5072482;28;20093;-72
2023/09/02 09:08:31;;;;;;;17.88;12.57;;;20.80;99.90;;;;;;5072192;28;20091;-72
2023/09/02 09:10:57;;;;;;;16.80;12.88;;;21.00;99.90;;;;;;5072176;28;20044;-72
2023/09/02 09:13:25;;;;;;;18.98;14.07;;;21.10;99.90;;;;;;5072076;28;20080;-72
2023/09/02 09:15:56;;;;;;;18.83;12.73;;;21.20;99.90;;;;;;5072310;28;20048;-72
2023/09/02 09:18:22;;;;;;;17.10;14.15;;;21.50;99.90;;;;;;5072151;28;20076;-72
2023/09/02 09:20:48;;;;;;;18.15;12.90;;;21.70;99.90;;;;;;5073231;28;20071;-72
2023/09/02 09:23:13;;;;;;;16.48;11.52;;;21.70;99.90;;;;;;5055356;28;20041;-72
2023/09/02 09:25:39;;;;;;;17.95;12.98;;;21.80;99.90;;;;;;5072034;28;20098;-72
2023/09/02 09:28:12;;;;;;;19.85;11.98;;;22.00;99.90;;;;;;5072046;28;20072;-72
2023/09/02 09:30:38;;;;;;;15.77;11.43;;;22.20;99.90;;;;;;5072045;28;20473;-72
2023/09/02 09:33:05;;;;;;;16.55;11.65;;;22.50;99.90;;;;;;5055640;28;20033;-72
2023/09/02 09:35:35;;;;;;;14.50;11.13;;;22.50;99.90;;;;;;5071831;28;20056;-72
2023/09/02 09:38:01;;;;;;;18.15;11.38;;;22.80;99.90;;;;;;5071953;28;20086;-72
2023/09/02 09:40:31;;;;;;;17.98;11.18;;;23.00;99.90;;;;;;5072032;28;20086;-72
2023/09/02 09:43:01;;;;;;;15.48;10.52;;;23.10;99.90;;;;;;5071899;28;20035;-72
2023/09/02 09:45:27;;;;;;;19.13;11.32;;;23.30;99.90;;;;;;5055462;28;20036;-72
2023/09/02 09:47:57;;;;;;;19.08;13.13;;;23.60;99.90;;;;;;5055361;28;20044;-72
2023/09/02 09:50:22;;;;;;;16.02;10.88;;;23.70;98.30;;;;;;5072388;28;20052;-72
2023/09/02 09:53:01;;;;;;;15.95;10.38;;;23.70;97.40;;;;;;5071804;28;20037;-75
2023/09/02 09:55:27;;;;;;;12.30;9.27;;;23.50;97.80;;;;;;5054823;28;20033;-74
2023/09/02 09:57:54;;;;;;;15.45;10.38;;;23.20;98.20;;;;;;5072014;28;20078;-75
2023/09/02 10:00:20;;;;;;;14.30;9.90;;;23.00;98.40;;;;;;5074064;28;20032;-75
2023/09/02 10:02:57;;;;;;;16.02;10.13;;;22.80;98.60;;;;;;5075903;28;20562;-74
2023/09/02 10:05:30;;;;;;;13.80;9.95;;;22.60;98.60;;;;;;5075894;28;20047;-75
2023/09/02 10:08:07;;;;;;;15.98;10.13;;;22.40;99.40;;;;;;5076452;28;20033;-75
2023/09/02 10:10:35;;;;;;;18.02;11.60;;;22.20;99.40;;;;;;5075927;28;20098;-74
2023/09/02 10:13:01;;;;;;;16.80;10.57;;;22.00;99.90;;;;;;5075759;28;20050;-74
2023/09/02 10:15:28;;;;;;;15.05;9.52;;;21.90;99.90;;;;;;5075556;28;20040;-75
2023/09/02 10:17:56;;;;;;;17.15;10.13;;;21.90;99.90;;;;;;5076754;28;20124;-75
2023/09/02 10:20:25;;;;;;;18.17;9.75;;;22.00;99.90;;;;;;5075671;28;20040;-74
2023/09/02 10:22:51;;;;;;;13.70;8.77;;;22.10;99.20;;;;;;5075559;28;20055;-75
2023/09/02 10:25:27;;;;;;;17.73;10.82;;;22.20;99.90;;;;;;5075135;28;20071;-75
2023/09/02 10:28:04;;;;;;;17.20;10.32;;;22.30;99.00;;;;;;5075400;28;20039;-74
2023/09/02 10:30:36;;;;;;;16.20;9.55;;;22.40;99.60;;;;;;5075150;28;20036;-74
2023/09/02 10:33:43;;;;;;;12.15;9.38;;;22.40;99.30;;;;;;5075105;28;20036;-75
2023/09/02 10:36:13;;;;;;;14.05;9.93;;;22.50;99.00;;;;;;5075166;28;20040;-75
2023/09/02 10:38:44;;;;;;;13.60;9.13;;;22.30;99.20;;;;;;5075001;28;20500;-75
2023/09/02 10:41:13;;;;;;;13.00;8.68;;;22.20;99.70;;;;;;5074927;28;20098;-75
2023/09/02 10:43:40;;;;;;;13.38;8.95;;;22.00;99.50;;;;;;5074855;28;20048;-75
2023/09/02 10:46:08;;;;;;;13.93;9.32;;;21.80;99.80;;;;;;5074817;28;20040;-74
2023/09/02 10:48:36;;;;;;;14.70;9.48;;;21.80;99.90;;;;;;5075713;28;20079;-74
2023/09/02 10:51:04;;;;;;;11.75;8.48;;;22.10;99.90;;;;;;5074702;28;20044;-74
2023/09/02 10:53:48;;;;;;;11.75;7.55;;;22.50;99.20;;;;;;5074664;28;20097;-74
2023/09/02 10:56:24;;;;;;;15.77;7.85;;;22.90;99.00;;;;;;5074566;28;20500;-74
2023/09/02 10:58:49;;;;;;;11.50;8.50;;;23.30;97.50;;;;;;5074645;28;20058;-74
2023/09/02 11:01:15;;;;;;;13.48;8.00;;;23.60;96.30;;;;;;5074545;28;20033;-74
2023/09/02 11:03:48;;;;;;;9.63;7.40;;;23.90;94.60;;;;;;5074499;28;20070;-74
2023/09/02 11:06:17;;;;;;;9.27;7.15;;;24.10;92.70;;;;;;5074531;28;20041;-74
2023/09/02 11:08:49;;;;;;;9.88;6.45;;;24.40;92.10;;;;;;5057995;28;20059;-74
2023/09/02 11:11:19;;;;;;;11.43;6.90;;;24.60;91.50;;;;;;5056815;28;20040;-74
2023/09/02 11:14:06;;;;;;;10.02;5.60;;;24.90;89.60;;;;;;5074448;28;20079;-74
2023/09/02 11:16:33;;;;;;;9.45;6.18;;;25.20;89.90;;;;;;5074534;28;20051;-74
2023/09/02 11:19:01;;;;;;;8.65;5.82;;;25.40;86.80;;;;;;5074676;28;20072;-75
2023/09/02 11:21:40;;;;;;;12.85;7.00;;;25.50;84.90;;;;;;5074292;28;20405;-74
2023/09/02 11:24:21;;;;;;;13.75;6.60;;;25.70;80.40;;;;;;5075443;28;20401;-72
2023/09/02 11:26:55;;;;;;;12.57;6.45;;;25.70;81.70;;;;;;5074403;28;20048;-72
2023/09/02 11:29:28;;;;;;;11.18;6.85;;;25.90;82.00;;;;;;5074106;28;20115;-72
2023/09/02 11:31:59;;;;;;;8.38;7.15;;;26.10;82.70;;;;;;5074074;28;20056;-72
2023/09/02 11:34:26;;;;;;;12.75;7.80;;;26.20;78.30;;;;;;5074183;28;20417;-72
2023/09/02 11:36:53;;;;;;;11.23;7.13;;;26.10;77.20;;;;;;5073769;28;20413;-72
2023/09/02 11:39:23;;;;;;;11.82;7.05;;;26.30;77.80;;;;;;5073811;28;20044;-72
2023/09/02 11:41:49;;;;;;;12.57;7.20;;;26.50;78.30;;;;;;5074141;28;20040;-72
2023/09/02 11:44:14;;;;;;;13.27;8.27;;;26.60;78.10;;;;;;5074006;28;20040;-72
2023/09/02 11:46:40;;;;;;;12.82;6.85;;;26.80;75.90;;;;;;5073861;28;20408;-72
2023/09/02 11:49:12;;;;;;;9.98;5.82;;;27.00;77.40;;;;;;5073656;28;20044;-71
2023/09/02 11:51:38;;;;;;;11.65;7.28;;;27.20;75.20;;;;;;5073642;28;20032;-70
2023/09/02 11:54:04;;;;;;;10.48;6.47;;;27.20;74.70;;;;;;5073547;28;20086;-70
2023/09/02 11:56:30;;;;;;;13.40;7.65;;;27.30;74.10;;;;;;5073408;28;20048;-71
2023/09/02 11:58:55;;;;;;;12.05;7.30;;;27.20;72.50;;;;;;5073490;28;20124;-70
2023/09/02 12:01:21;;;;;;;13.07;6.85;;;27.00;72.10;;;;;;5074831;28;20070;-70
2023/09/02 12:03:47;;;;;;;15.60;6.95;;;26.60;72.70;;;;;;5073330;28;20432;-70
2023/09/02 12:06:13;;;;;;;10.52;5.82;;;26.30;74.70;;;;;;5073385;28;20078;-70
2023/09/02 12:08:38;;;;;;;12.90;7.93;;;26.00;75.70;;;;;;5073295;28;20071;-70
2023/09/02 12:11:04;;;;;;;12.05;7.40;;;25.90;75.90;;;;;;5073439;28;20076;-70
2023/09/02 12:13:31;;;;;;;9.95;6.40;;;26.10;76.70;;;;;;5072856;28;20048;-70
2023/09/02 12:15:57;;;;;;;9.85;6.55;;;26.20;74.70;;;;;;5073006;28;20083;-71
2023/09/02 12:18:24;;;;;;;10.80;6.15;;;26.20;76.30;;;;;;5073146;28;20071;-70
2023/09/02 12:20:51;;;;;;;9.48;5.32;;;26.20;75.20;;;;;;5073108;28;20071;-70
2023/09/02 12:23:16;;;;;;;9.35;4.88;;;26.20;74.70;;;;;;5073058;28;20119;-70
2023/09/02 12:25:59;;;;;;;8.45;5.65;;;26.50;75.00;;;;;;5073150;28;20136;-70
2023/09/02 12:28:29;;;;;;;12.27;5.95;;;26.50;72.10;;;;;;5072892;28;20080;-70
2023/09/02 12:30:55;;;;;;;11.23;5.97;;;26.40;71.70;;;;;;5072790;28;20493;-70
2023/09/02 12:33:22;;;;;;;71.85;8.20;;;26.20;70.90;;;;;;5072740;28;20052;-70
2023/09/02 12:35:49;;;;;;;9.73;4.68;;;26.20;73.60;;;;;;5072732;28;20044;-71